Time;durP1;ratioP1;P1;durP2;ratioP2;P2;SDS_P1;SDS_P2;PMS_P1;PMS_P2;Temp;Humidity;BMP_temperature;BMP_pressure;BME280_temperature;BME280_humidity;BME280_pressure;Samples;Min_cycle;Max_cycle;Signal;HPM_P1;HPM_P2
2021/03/27 00:02:16;;;;;;;38.15;24.20;;;205.30;1433.60;;;;;;5074623;28;20063;-71
2021/03/27 00:04:49;;;;;;;39.65;23.02;;;205.30;1433.60;;;;;;5074662;28;20028;-64
2021/03/27 00:07:23;;;;;;;37.65;23.02;;;205.30;1433.60;;;;;;5074130;28;20035;-64
2021/03/27 00:10:11;;;;;;;35.55;21.80;;;205.30;1433.60;;;;;;5072400;28;20029;-72
2021/03/27 00:12:39;;;;;;;38.45;22.30;;;205.20;1408.00;;;;;;5074402;28;20537;-65
2021/03/27 00:15:27;;;;;;;36.92;22.17;;;205.30;1382.40;;;;;;5073175;28;20047;-72
2021/03/27 00:18:17;;;;;;;39.45;22.00;;;205.20;1382.40;;;;;;5073804;28;20074;-68
2021/03/27 00:20:47;;;;;;;36.05;21.48;;;205.20;1408.00;;;;;;5074093;28;20055;-64
2021/03/27 00:23:20;;;;;;;41.00;22.90;;;205.20;1408.00;;;;;;5073542;28;20382;-69
2021/03/27 00:26:02;;;;;;;39.95;23.10;;;205.20;1408.00;;;;;;5073543;28;20462;-66
2021/03/27 00:28:50;;;;;;;37.38;22.75;;;205.20;1408.00;;;;;;5071669;28;20032;-63
2021/03/27 00:31:23;;;;;;;37.65;22.48;;;205.20;1408.00;;;;;;5072659;28;20032;-70
2021/03/27 00:33:55;;;;;;;38.17;23.55;;;205.20;1408.00;;;;;;5073456;28;20112;-64
2021/03/27 00:36:29;;;;;;;41.03;23.02;;;205.10;1433.60;;;;;;5073677;28;20060;-67
2021/03/27 00:39:03;;;;;;;40.45;23.75;;;205.10;1433.60;;;;;;5073685;28;20131;-70
2021/03/27 00:41:53;;;;;;;45.40;24.48;;;205.10;1433.60;;;;;;5074252;28;20021;-64
2021/03/27 00:44:25;;;;;;;41.78;24.27;;;205.10;1433.60;;;;;;5073147;28;20025;-69
2021/03/27 00:46:52;;;;;;;40.30;23.63;;;205.10;1433.60;;;;;;5073055;28;20024;-65
2021/03/27 00:49:26;;;;;;;38.75;22.25;;;205.10;1433.60;;;;;;5071956;28;20103;-64
2021/03/27 00:52:01;;;;;;;38.83;24.45;;;205.00;1433.60;;;;;;5073663;28;20048;-69
2021/03/27 00:54:40;;;;;;;39.45;23.60;;;205.00;1433.60;;;;;;5072576;28;20078;-71
2021/03/27 00:57:25;;;;;;;42.38;24.50;;;205.00;1433.60;;;;;;5072385;28;20131;-70
2021/03/27 00:59:59;;;;;;;42.33;25.50;;;204.90;1433.60;;;;;;5072738;28;20031;-65
2021/03/27 01:02:27;;;;;;;40.08;24.77;;;204.90;1459.20;;;;;;5073597;28;20032;-70
2021/03/27 01:04:55;;;;;;;45.35;24.52;;;204.90;1433.60;;;;;;5073653;28;20534;-64
2021/03/27 01:07:23;;;;;;;47.97;27.73;;;204.90;1433.60;;;;;;5073676;28;20497;-70
2021/03/27 01:10:06;;;;;;;40.90;25.00;;;204.90;1433.60;;;;;;5073684;28;20020;-65
2021/03/27 01:12:39;;;;;;;45.70;26.48;;;204.90;1433.60;;;;;;5073680;28;20032;-65
2021/03/27 01:15:12;;;;;;;46.38;26.60;;;204.80;1433.60;;;;;;5073258;28;20125;-71
2021/03/27 01:17:42;;;;;;;40.92;24.92;;;204.80;1433.60;;;;;;5073516;28;20025;-66
2021/03/27 01:20:16;;;;;;;47.80;28.45;;;204.80;1459.20;;;;;;5073506;28;20043;-65
2021/03/27 01:22:44;;;;;;;40.20;26.52;;;204.80;1433.60;;;;;;5073620;28;20028;-65
2021/03/27 01:25:11;;;;;;;46.80;28.27;;;204.80;1433.60;;;;;;5073428;28;20025;-65
2021/03/27 01:27:53;;;;;;;49.88;27.35;;;204.80;1459.20;;;;;;5073432;28;20033;-71
2021/03/27 01:30:34;;;;;;;47.47;25.67;;;180.10;1459.20;;;;;;5073171;28;20060;-69
2021/03/27 01:33:24;;;;;;;43.70;26.27;;;180.10;1459.20;;;;;;5073465;28;20042;-70
2021/03/27 01:36:15;;;;;;;51.55;28.40;;;180.10;1459.20;;;;;;5073361;28;20120;-66
2021/03/27 01:38:59;;;;;;;48.50;27.50;;;180.10;1484.80;;;;;;5090724;28;20462;-65
2021/03/27 01:41:31;;;;;;;47.25;28.90;;;180.10;1484.80;;;;;;5093573;28;20028;-64
2021/03/27 01:44:26;;;;;;;50.03;30.00;;;180.00;1484.80;;;;;;5093295;28;20024;-65
2021/03/27 01:47:15;;;;;;;49.95;29.33;;;180.00;1484.80;;;;;;4991858;28;20101;-65
2021/03/27 01:50:26;;;;;;;45.67;27.38;;;180.00;1484.80;;;;;;4991713;28;20211;-65
2021/03/27 01:53:01;;;;;;;47.40;26.48;;;180.00;1484.80;;;;;;4991692;28;20065;-71
2021/03/27 01:55:26;;;;;;;;;;;179.90;1459.20;;;;;;4992551;28;20058;-65
2021/03/27 01:58:07;;;;;;;49.70;27.98;;;180.00;1459.20;;;;;;4991746;28;20024;-64
2021/03/27 02:00:39;;;;;;;48.58;28.90;;;179.90;1484.80;;;;;;4991788;28;20109;-65
2021/03/27 02:03:27;;;;;;;54.58;33.35;;;179.90;1484.80;;;;;;4975092;28;20547;-64
2021/03/27 02:06:35;;;;;;;55.67;33.85;;;179.90;1510.40;;;;;;4991748;28;20209;-67
2021/03/27 02:09:19;;;;;;;57.03;34.33;;;179.90;1510.40;;;;;;4933954;29;20573;-71
2021/03/27 02:11:56;;;;;;;58.85;34.28;;;179.90;1510.40;;;;;;4935783;29;20040;-68
2021/03/27 02:14:27;;;;;;;58.78;32.55;;;179.90;1510.40;;;;;;4937252;29;20032;-64
2021/03/27 02:16:59;;;;;;;52.58;31.88;;;179.90;1510.40;;;;;;4937201;29;20116;-71
2021/03/27 02:19:39;;;;;;;57.50;32.10;;;179.90;1510.40;;;;;;4937122;29;20074;-65
2021/03/27 02:22:13;;;;;;;51.30;30.15;;;179.90;1510.40;;;;;;4938395;28;20111;-63
2021/03/27 02:25:00;;;;;;;50.72;28.63;;;179.90;1510.40;;;;;;5014950;28;20144;-64
2021/03/27 02:27:37;;;;;;;51.28;29.55;;;179.90;1484.80;;;;;;5014658;28;20458;-71
2021/03/27 02:30:56;;;;;;;54.70;29.08;;;179.80;1510.40;;;;;;5014396;28;20022;-65
2021/03/27 02:33:40;;;;;;;47.65;27.50;;;179.80;1510.40;;;;;;4975500;28;20039;-70
2021/03/27 02:36:27;;;;;;;50.63;28.95;;;179.80;1484.80;;;;;;4975206;28;20125;-70
2021/03/27 02:39:00;;;;;;;46.05;27.42;;;179.80;1510.40;;;;;;4975079;28;20106;-70
2021/03/27 02:41:43;;;;;;;45.50;29.05;;;179.80;1510.40;;;;;;4975347;28;20037;-70
2021/03/27 02:44:25;;;;;;;46.20;28.50;;;179.80;1510.40;;;;;;4975170;28;20074;-65
2021/03/27 02:46:57;;;;;;;50.83;29.73;;;179.80;1484.80;;;;;;5012956;28;20038;-64
2021/03/27 02:49:44;;;;;;;46.05;27.20;;;179.80;1484.80;;;;;;5014186;28;20022;-65
2021/03/27 02:52:50;;;;;;;48.42;27.83;;;179.80;1484.80;;;;;;5014272;28;20483;-68
2021/03/27 02:55:40;;;;;;;49.42;28.30;;;179.80;1484.80;;;;;;4955488;28;20134;-64
2021/03/27 02:58:29;;;;;;;53.63;29.38;;;179.80;1484.80;;;;;;4956043;29;20043;-65
2021/03/27 03:01:01;;;;;;;46.83;27.90;;;179.80;1484.80;;;;;;4955423;29;20426;-64
2021/03/27 03:03:50;;;;;;;47.80;27.90;;;179.80;1484.80;;;;;;4968038;28;20080;-65
2021/03/27 03:06:21;;;;;;;47.38;29.83;;;179.70;1510.40;;;;;;5013860;28;20511;-65
2021/03/27 03:09:12;;;;;;;48.00;29.58;;;179.70;1510.40;;;;;;5013845;28;20467;-68
2021/03/27 03:11:38;;;;;;;45.72;28.85;;;179.60;1484.80;;;;;;5013102;28;20037;-70
2021/03/27 03:14:15;;;;;;;50.08;29.63;;;179.70;1484.80;;;;;;5013898;28;20026;-65
2021/03/27 03:16:47;;;;;;;57.75;31.15;;;179.70;1484.80;;;;;;5013446;28;20149;-68
2021/03/27 03:19:46;;;;;;;53.65;31.15;;;179.70;1484.80;;;;;;5013652;28;20041;-65
2021/03/27 03:22:32;;;;;;;52.67;29.98;;;179.70;1484.80;;;;;;4974176;28;20066;-65
2021/03/27 03:25:07;;;;;;;55.58;32.05;;;179.70;1484.80;;;;;;4974449;28;20041;-69
2021/03/27 03:27:36;;;;;;;49.28;30.27;;;179.70;1510.40;;;;;;4974582;28;20023;-65
2021/03/27 03:30:26;;;;;;;52.33;30.92;;;179.60;1510.40;;;;;;4987128;28;20396;-67
2021/03/27 03:33:30;;;;;;;48.45;29.20;;;179.60;1510.40;;;;;;5033112;28;20044;-64
2021/03/27 03:36:16;;;;;;;48.40;29.58;;;179.60;1510.40;;;;;;5032689;28;20103;-68
2021/03/27 03:39:01;;;;;;;47.88;28.95;;;179.60;1510.40;;;;;;5032809;28;20119;-73
2021/03/27 03:41:38;;;;;;;48.30;29.20;;;179.50;1510.40;;;;;;5032949;28;20033;-73
2021/03/27 03:44:21;;;;;;;51.67;30.25;;;179.60;1510.40;;;;;;5032992;28;20032;-68
2021/03/27 03:46:53;;;;;;;60.10;31.60;;;179.60;1510.40;;;;;;5032954;28;20029;-69
2021/03/27 03:49:47;;;;;;;58.90;32.60;;;179.60;1510.40;;;;;;5032932;28;20498;-69
2021/03/27 03:52:35;;;;;;;57.75;31.80;;;179.50;1510.40;;;;;;5032717;28;20033;-65
2021/03/27 03:55:18;;;;;;;59.15;32.83;;;179.50;1510.40;;;;;;5032913;28;20025;-64
2021/03/27 03:57:59;;;;;;;58.15;33.45;;;179.50;1510.40;;;;;;5042031;28;20032;-65
2021/03/27 04:00:37;;;;;;;55.85;32.75;;;179.50;1510.40;;;;;;5094970;28;20028;-65
2021/03/27 04:03:12;;;;;;;59.60;31.38;;;179.50;1510.40;;;;;;5094753;28;20048;-70
2021/03/27 04:05:49;;;;;;;53.85;31.45;;;179.50;1510.40;;;;;;5094669;28;20362;-65
2021/03/27 04:08:30;;;;;;;57.58;32.35;;;179.50;1484.80;;;;;;5094710;28;20035;-69
2021/03/27 04:11:15;;;;;;;51.15;30.77;;;179.50;1510.40;;;;;;5094481;28;20028;-65
2021/03/27 04:13:50;;;;;;;51.40;30.27;;;179.50;1484.80;;;;;;5094766;28;20035;-64
2021/03/27 04:16:25;;;;;;;52.30;31.33;;;179.50;1484.80;;;;;;5094519;28;20043;-65
2021/03/27 04:19:00;;;;;;;;;;;179.50;1484.80;;;;;;5095109;28;20031;-70
2021/03/27 04:21:35;;;;;;;52.17;31.45;;;179.50;1484.80;;;;;;5094523;28;19904;-65
2021/03/27 04:24:27;;;;;;;57.50;29.60;;;179.50;1484.80;;;;;;5094234;28;20177;-70
2021/03/27 04:26:57;;;;;;;54.25;30.23;;;179.50;1510.40;;;;;;5083035;28;20070;-65
2021/03/27 04:29:32;;;;;;;48.80;29.08;;;179.50;1484.80;;;;;;5094345;28;20047;-65
2021/03/27 04:32:00;;;;;;;47.80;28.50;;;179.50;1484.80;;;;;;5094137;28;20166;-65
2021/03/27 04:34:36;;;;;;;51.03;29.25;;;179.50;1510.40;;;;;;5093546;28;20028;-69
2021/03/27 04:37:20;;;;;;;55.80;30.52;;;179.50;1484.80;;;;;;5094008;28;20158;-64
2021/03/27 04:40:25;;;;;;;51.80;29.75;;;179.50;1484.80;;;;;;5094213;28;20024;-71
2021/03/27 04:43:10;;;;;;;51.50;30.48;;;179.50;1484.80;;;;;;4992606;28;20038;-71
2021/03/27 04:45:57;;;;;;;49.58;28.80;;;179.50;1484.80;;;;;;4992361;28;20031;-71
2021/03/27 04:48:26;;;;;;;46.33;28.17;;;179.50;1484.80;;;;;;4992340;28;20477;-65
2021/03/27 04:51:00;;;;;;;58.90;31.70;;;179.50;1484.80;;;;;;4984467;28;20053;-65
2021/03/27 04:53:29;;;;;;;53.30;30.30;;;179.50;1484.80;;;;;;4992354;28;20113;-68
2021/03/27 04:56:20;;;;;;;53.90;29.45;;;179.50;1484.80;;;;;;4992315;28;20042;-66
2021/03/27 04:59:17;;;;;;;56.03;33.40;;;179.50;1484.80;;;;;;4992125;28;20505;-65
2021/03/27 05:02:04;;;;;;;60.45;33.88;;;179.50;1484.80;;;;;;4934299;29;20043;-65
2021/03/27 05:05:01;;;;;;;62.83;35.78;;;179.60;1484.80;;;;;;4934249;29;20434;-69
2021/03/27 05:08:11;;;;;;;66.38;36.45;;;179.60;1484.80;;;;;;4934401;29;20036;-65
2021/03/27 05:10:59;;;;;;;72.43;38.22;;;179.60;1484.80;;;;;;4934352;29;20031;-68
2021/03/27 05:13:37;;;;;;;70.15;37.60;;;179.60;1484.80;;;;;;4934303;29;20038;-69
2021/03/27 05:16:13;;;;;;;64.03;36.67;;;179.60;1484.80;;;;;;4934092;29;20040;-68
2021/03/27 05:18:42;;;;;;;65.85;35.90;;;179.70;1484.80;;;;;;4958754;28;20125;-67
2021/03/27 05:21:26;;;;;;;62.80;37.03;;;179.70;1484.80;;;;;;5011560;28;20029;-66
2021/03/27 05:24:09;;;;;;;62.47;36.07;;;179.80;1484.80;;;;;;5011505;28;20397;-66
2021/03/27 05:26:59;;;;;;;61.05;35.60;;;179.80;1459.20;;;;;;5011972;28;20260;-69
2021/03/27 05:29:31;;;;;;;62.50;35.72;;;179.80;1459.20;;;;;;5011617;28;20571;-68
2021/03/27 05:32:13;;;;;;;55.35;33.90;;;179.90;1459.20;;;;;;5011469;28;20042;-68
2021/03/27 05:34:46;;;;;;;62.13;33.40;;;180.00;1484.80;;;;;;5011729;28;20404;-65
2021/03/27 05:37:37;;;;;;;54.03;32.83;;;180.00;1459.20;;;;;;5011399;28;20042;-65
2021/03/27 05:40:40;;;;;;;53.63;31.48;;;180.10;1459.20;;;;;;5093611;28;20034;-73
2021/03/27 05:43:36;;;;;;;50.90;30.65;;;204.80;1459.20;;;;;;5093500;28;20020;-74
2021/03/27 05:46:35;;;;;;;56.90;33.40;;;204.90;1459.20;;;;;;5096024;28;20028;-65
2021/03/27 05:49:52;;;;;;;55.55;32.33;;;205.00;1459.20;;;;;;5097471;28;20051;-69
2021/03/27 05:52:56;;;;;;;54.72;33.58;;;205.20;1433.60;;;;;;5097246;28;20115;-65
2021/03/27 05:56:06;;;;;;;62.83;35.00;;;205.30;1433.60;;;;;;4994952;28;20043;-64
2021/03/27 05:59:05;;;;;;;59.75;35.15;;;205.40;1433.60;;;;;;4980067;28;20489;-64
2021/03/27 06:01:40;;;;;;;54.83;32.70;;;205.50;1433.60;;;;;;4975572;28;20031;-70
2021/03/27 06:04:28;;;;;;;58.70;34.75;;;205.60;1408.00;;;;;;4975726;28;20042;-64
2021/03/27 06:07:30;;;;;;;51.10;31.15;;;230.40;1408.00;;;;;;4974635;28;20118;-70
2021/03/27 06:10:07;;;;;;;52.35;31.55;;;230.40;1408.00;;;;;;4975614;28;20118;-64
2021/03/27 06:12:59;;;;;;;53.05;32.08;;;230.60;1408.00;;;;;;4974843;28;20050;-63
2021/03/27 06:15:38;;;;;;;62.53;35.53;;;230.70;1382.40;;;;;;4975025;28;20066;-65
2021/03/27 06:18:15;;;;;;;60.58;35.22;;;230.90;1382.40;;;;;;4975509;28;20090;-63
2021/03/27 06:20:49;;;;;;;60.97;36.67;;;231.00;1356.80;;;;;;4975293;28;20033;-66
2021/03/27 06:23:15;;;;;;;58.05;34.15;;;231.20;1356.80;;;;;;4979726;28;20038;-65
2021/03/27 06:26:15;;;;;;;60.50;35.33;;;231.30;1356.80;;;;;;4975924;28;20041;-68
2021/03/27 06:29:05;;;;;;;60.28;33.85;;;256.10;1331.20;;;;;;4996898;28;20037;-65
2021/03/27 06:32:06;;;;;;;58.92;35.38;;;256.30;1331.20;;;;;;5076306;28;20021;-63
2021/03/27 06:34:43;;;;;;;56.72;34.17;;;256.60;1305.60;;;;;;5076437;28;20032;-64
2021/03/27 06:37:17;;;;;;;59.90;36.15;;;256.80;1305.60;;;;;;5075678;28;20053;-63
2021/03/27 06:39:49;;;;;;;53.30;35.28;;;281.60;1305.60;;;;;;5076236;28;20025;-64
2021/03/27 06:42:36;;;;;;;58.25;35.33;;;281.90;1305.60;;;;;;5076112;28;20052;-63
2021/03/27 06:45:23;;;;;;;63.67;37.45;;;282.10;1280.00;;;;;;5076097;28;20158;-63
2021/03/27 06:48:13;;;;;;;57.67;36.63;;;282.40;1280.00;;;;;;5076304;28;20158;-63
2021/03/27 06:51:20;;;;;;;60.20;36.95;;;307.20;1280.00;;;;;;5076306;28;20110;-65
2021/03/27 06:54:14;;;;;;;57.75;34.90;;;307.50;1280.00;;;;;;4975134;28;20031;-64
2021/03/27 06:56:58;;;;;;;55.58;34.55;;;307.80;1254.40;;;;;;4974211;28;20038;-65
2021/03/27 06:59:35;;;;;;;67.18;31.95;;;308.00;1254.40;;;;;;4974574;28;20026;-64
2021/03/27 07:02:10;;;;;;;64.28;34.05;;;332.90;1331.20;;;;;;4974888;28;20094;-64
2021/03/27 07:05:09;;;;;;;62.63;36.05;;;333.10;1280.00;;;;;;4974926;28;20050;-64
2021/03/27 07:07:43;;;;;;;63.08;37.35;;;333.50;1254.40;;;;;;4974843;28;20061;-64
2021/03/27 07:10:27;;;;;;;72.05;35.67;;;358.40;1228.80;;;;;;4974883;28;20042;-70
2021/03/27 07:13:20;;;;;;;67.32;35.60;;;358.60;1177.60;;;;;;4974163;28;20042;-66
2021/03/27 07:16:03;;;;;;;53.95;34.63;;;358.90;1152.00;;;;;;4972425;28;20066;-64
2021/03/27 07:18:49;;;;;;;77.30;35.80;;;359.10;1152.00;;;;;;4974293;28;20547;-65
2021/03/27 07:21:44;;;;;;;57.47;34.00;;;384.00;1152.00;;;;;;4974638;28;20034;-69
2021/03/27 07:24:26;;;;;;;60.22;31.55;;;384.30;1126.40;;;;;;4974608;28;20106;-70
2021/03/27 07:26:57;;;;;;;44.05;28.42;;;384.60;1100.80;;;;;;4974580;28;20035;-64
2021/03/27 07:30:00;;;;;;;44.30;28.67;;;384.90;1100.80;;;;;;4991325;28;20036;-69
2021/03/27 07:32:44;;;;;;;45.83;25.58;;;409.80;1049.60;;;;;;5075233;28;20028;-64
2021/03/27 07:35:09;;;;;;;35.78;21.95;;;410.10;1024.00;;;;;;5074974;28;20016;-64
2021/03/27 07:37:44;;;;;;;37.83;23.00;;;410.30;947.20;;;;;;5074817;28;20059;-66
2021/03/27 07:40:36;;;;;;;35.72;23.40;;;410.50;947.20;;;;;;5075096;28;20028;-64
2021/03/27 07:43:18;;;;;;;34.90;22.70;;;435.40;947.20;;;;;;4974186;28;20085;-66
2021/03/27 07:46:07;;;;;;;34.65;23.52;;;435.70;921.60;;;;;;4974043;28;20485;-64
2021/03/27 07:48:46;;;;;;;32.50;21.63;;;435.90;921.60;;;;;;4974741;28;20058;-64
2021/03/27 07:51:49;;;;;;;32.22;22.70;;;436.10;896.00;;;;;;4974331;28;20539;-72
2021/03/27 07:54:18;;;;;;;37.28;22.30;;;461.00;921.60;;;;;;4974598;28;20074;-65
2021/03/27 07:57:16;;;;;;;41.92;22.20;;;461.20;896.00;;;;;;4974111;28;20629;-65
2021/03/27 07:59:52;;;;;;;37.42;21.42;;;461.40;896.00;;;;;;4973748;28;20042;-64
2021/03/27 08:02:54;;;;;;;35.97;21.38;;;461.60;870.40;;;;;;4973917;28;20034;-64
2021/03/27 08:05:39;;;;;;;40.90;21.58;;;486.40;844.80;;;;;;4957703;28;20031;-64
2021/03/27 08:08:31;;;;;;;46.28;22.02;;;486.60;844.80;;;;;;4973269;28;20027;-65
2021/03/27 08:11:18;;;;;;;37.35;21.02;;;486.80;870.40;;;;;;4973666;28;20035;-70
2021/03/27 08:14:02;;;;;;;34.33;19.95;;;487.00;819.20;;;;;;4973564;28;20066;-65
2021/03/27 08:16:37;;;;;;;31.45;21.00;;;487.10;793.60;;;;;;4973422;28;20041;-71
2021/03/27 08:19:36;;;;;;;35.75;20.38;;;487.30;768.00;;;;;;4990749;28;20032;-64
2021/03/27 08:22:13;;;;;;;38.08;20.85;;;512.10;768.00;;;;;;5074223;28;20446;-72
2021/03/27 08:25:18;;;;;;;35.65;21.10;;;512.30;768.00;;;;;;5074337;28;20031;-65
2021/03/27 08:28:14;;;;;;;34.23;19.37;;;512.60;742.40;;;;;;5073413;28;20478;-64
2021/03/27 08:31:17;;;;;;;30.23;18.73;;;512.90;742.40;;;;;;5056390;28;20439;-65
2021/03/27 08:34:01;;;;;;;30.63;19.20;;;537.60;768.00;;;;;;5056043;28;20028;-65
2021/03/27 08:36:43;;;;;;;37.03;21.30;;;537.90;742.40;;;;;;5074348;28;20032;-64
2021/03/27 08:39:15;;;;;;;30.00;19.95;;;538.10;716.80;;;;;;5073703;28;20512;-65
2021/03/27 08:41:43;;;;;;;31.52;18.05;;;538.30;742.40;;;;;;5055889;28;20032;-64
2021/03/27 08:44:35;;;;;;;29.25;16.70;;;538.40;716.80;;;;;;5073816;28;20027;-65
2021/03/27 08:47:32;;;;;;;66.53;37.75;;;538.50;691.20;;;;;;5074072;28;20032;-66
2021/03/27 08:50:16;;;;;;;37.67;22.08;;;563.30;716.80;;;;;;5055815;28;20028;-65
2021/03/27 08:53:03;;;;;;;27.42;18.95;;;563.40;691.20;;;;;;5073890;28;20104;-65
2021/03/27 08:55:39;;;;;;;27.02;16.98;;;563.60;716.80;;;;;;5073912;28;20051;-65
2021/03/27 08:58:38;;;;;;;29.88;16.83;;;563.70;691.20;;;;;;5073913;28;20025;-65
2021/03/27 09:01:13;;;;;;;28.17;18.05;;;563.80;691.20;;;;;;5073582;28;20047;-65
2021/03/27 09:04:16;;;;;;;30.50;19.50;;;563.90;691.20;;;;;;5073836;28;20104;-66
2021/03/27 09:06:50;;;;;;;35.20;23.42;;;564.10;665.60;;;;;;5073657;28;20539;-65
2021/03/27 09:09:16;;;;;;;35.72;23.27;;;564.10;665.60;;;;;;5073753;28;20044;-65
2021/03/27 09:12:06;;;;;;;25.77;17.13;;;588.80;665.60;;;;;;5073581;28;20096;-65
2021/03/27 09:14:50;;;;;;;28.55;17.67;;;589.00;640.00;;;;;;5073192;28;20024;-66
2021/03/27 09:17:47;;;;;;;31.55;17.17;;;589.20;640.00;;;;;;5067311;28;20086;-66
2021/03/27 09:20:45;;;;;;;25.20;17.00;;;589.20;640.00;;;;;;5061663;28;20021;-66
2021/03/27 09:23:30;;;;;;;26.45;17.00;;;589.30;640.00;;;;;;5060134;28;20025;-65
2021/03/27 09:26:20;;;;;;;36.92;18.55;;;589.40;640.00;;;;;;5060092;28;20025;-65
2021/03/27 09:29:06;;;;;;;27.65;19.00;;;589.60;640.00;;;;;;5060039;28;20033;-65
2021/03/27 09:31:35;;;;;;;32.92;19.23;;;589.70;614.40;;;;;;5059872;28;20020;-65
2021/03/27 09:34:24;;;;;;;30.13;19.80;;;589.70;614.40;;;;;;5059957;28;20051;-65
2021/03/27 09:37:22;;;;;;;29.15;17.95;;;614.40;614.40;;;;;;4978940;28;20049;-67
2021/03/27 09:40:07;;;;;;;31.60;19.52;;;614.50;614.40;;;;;;4979021;28;20038;-66
2021/03/27 09:42:54;;;;;;;31.33;18.40;;;614.60;640.00;;;;;;4979001;28;20031;-65
2021/03/27 09:45:46;;;;;;;29.02;18.00;;;614.70;640.00;;;;;;4978886;28;20516;-65
2021/03/27 09:48:31;;;;;;;29.10;17.90;;;614.90;614.40;;;;;;4978951;28;20041;-65
2021/03/27 09:51:08;;;;;;;31.63;17.98;;;615.00;614.40;;;;;;4978797;28;20054;-66
2021/03/27 09:54:01;;;;;;;30.48;19.17;;;615.10;588.80;;;;;;4978851;28;20026;-65
2021/03/27 09:56:37;;;;;;;32.63;18.75;;;615.10;588.80;;;;;;4978894;28;20034;-66
2021/03/27 09:59:28;;;;;;;29.58;18.25;;;615.20;588.80;;;;;;4978763;28;20027;-67
2021/03/27 10:02:04;;;;;;;31.50;18.23;;;615.30;588.80;;;;;;4979011;28;20034;-65
2021/03/27 10:04:36;;;;;;;24.02;17.92;;;640.00;588.80;;;;;;4978775;28;20030;-66
2021/03/27 10:07:18;;;;;;;34.78;17.55;;;640.00;588.80;;;;;;4978522;28;20042;-66
2021/03/27 10:09:52;;;;;;;24.40;16.67;;;640.00;563.20;;;;;;4978610;28;20417;-67
2021/03/27 10:12:22;;;;;;;27.25;17.02;;;640.10;563.20;;;;;;4978992;28;20076;-66
2021/03/27 10:15:03;;;;;;;29.35;16.60;;;640.10;563.20;;;;;;5051375;28;20036;-65
2021/03/27 10:17:36;;;;;;;26.05;16.38;;;640.20;563.20;;;;;;5059497;28;20379;-65
2021/03/27 10:20:15;;;;;;;26.63;16.40;;;640.20;563.20;;;;;;5059528;28;20022;-65
2021/03/27 10:22:53;;;;;;;27.08;17.65;;;640.40;563.20;;;;;;5059388;28;20025;-67
2021/03/27 10:25:41;;;;;;;44.78;22.85;;;640.50;563.20;;;;;;5059672;28;20347;-66
2021/03/27 10:28:14;;;;;;;39.15;19.98;;;640.50;563.20;;;;;;5058996;28;20028;-65
2021/03/27 10:31:17;;;;;;;25.25;18.65;;;640.60;563.20;;;;;;5059611;28;20029;-68
2021/03/27 10:33:51;;;;;;;35.72;20.00;;;640.70;563.20;;;;;;5055664;28;20055;-65
2021/03/27 10:36:20;;;;;;;;;;;640.70;563.20;;;;;;5056496;28;20037;-66
2021/03/27 10:39:13;;;;;;;38.70;23.30;;;640.70;563.20;;;;;;5073874;28;19921;-71
2021/03/27 10:41:39;;;;;;;70.90;36.80;;;640.80;537.60;;;;;;5076286;28;20025;-66
2021/03/27 10:44:14;;;;;;;102.05;70.25;;;640.80;563.20;;;;;;5058532;28;20059;-66
2021/03/27 10:46:41;;;;;;;63.80;42.58;;;640.90;563.20;;;;;;5076212;28;20025;-65
2021/03/27 10:49:10;;;;;;;45.83;28.60;;;665.60;563.20;;;;;;5058138;28;20016;-66
2021/03/27 10:52:03;;;;;;;34.63;23.02;;;665.60;563.20;;;;;;5075917;28;20478;-67
2021/03/27 10:54:44;;;;;;;31.17;20.98;;;665.60;563.20;;;;;;5076024;28;20055;-66
2021/03/27 10:57:13;;;;;;;30.20;20.92;;;665.60;588.80;;;;;;5075971;28;20032;-66
2021/03/27 10:59:51;;;;;;;314.88;68.28;;;665.60;563.20;;;;;;5075856;28;20025;-65
2021/03/27 11:02:37;;;;;;;249.50;56.15;;;665.60;563.20;;;;;;5075550;28;20495;-67
2021/03/27 11:05:11;;;;;;;184.35;43.40;;;665.70;563.20;;;;;;5075798;28;20458;-65
2021/03/27 11:07:37;;;;;;;;;;;665.80;588.80;;;;;;5076240;28;20067;-67
2021/03/27 11:10:36;;;;;;;97.15;65.07;;;665.90;588.80;;;;;;5075777;28;20354;-70
2021/03/27 11:13:23;;;;;;;64.88;37.58;;;666.00;588.80;;;;;;5075694;28;20050;-72
2021/03/27 11:16:01;;;;;;;67.40;42.22;;;666.00;563.20;;;;;;5075371;28;20086;-67
2021/03/27 11:19:03;;;;;;;48.00;33.05;;;666.00;588.80;;;;;;5075441;28;20036;-69
2021/03/27 11:21:51;;;;;;;62.20;35.55;;;666.30;563.20;;;;;;5075524;28;20024;-67
2021/03/27 11:24:36;;;;;;;54.05;35.50;;;666.10;563.20;;;;;;5075298;28;20082;-71
2021/03/27 11:27:21;;;;;;;99.30;37.05;;;666.10;563.20;;;;;;5057540;28;20410;-72
2021/03/27 11:30:13;;;;;;;185.32;86.07;;;666.10;563.20;;;;;;5075459;28;20024;-70
2021/03/27 11:32:58;;;;;;;132.82;68.57;;;666.00;588.80;;;;;;5075351;28;20493;-65
2021/03/27 11:35:39;;;;;;;152.18;65.75;;;666.00;588.80;;;;;;5075109;28;20017;-65
2021/03/27 11:38:39;;;;;;;124.55;50.72;;;665.90;588.80;;;;;;5056449;28;20040;-66
2021/03/27 11:41:16;;;;;;;65.03;31.08;;;665.80;614.40;;;;;;5075297;28;20121;-66
2021/03/27 11:44:24;;;;;;;53.22;25.75;;;665.80;614.40;;;;;;5074782;28;20021;-67
2021/03/27 11:46:57;;;;;;;60.97;37.08;;;665.80;614.40;;;;;;5074923;28;20016;-68
2021/03/27 11:49:39;;;;;;;81.15;32.70;;;665.70;588.80;;;;;;5075069;28;20047;-72
2021/03/27 11:52:18;;;;;;;62.58;26.27;;;640.90;588.80;;;;;;5074989;28;20409;-72
2021/03/27 11:55:01;;;;;;;37.03;20.95;;;640.80;588.80;;;;;;5074862;28;20054;-72
2021/03/27 11:58:04;;;;;;;31.38;20.85;;;640.80;563.20;;;;;;5074675;28;20032;-73
2021/03/27 12:00:48;;;;;;;30.40;18.15;;;640.80;588.80;;;;;;5074536;28;20025;-72
2021/03/27 12:03:19;;;;;;;26.33;17.48;;;640.90;588.80;;;;;;5074541;28;20025;-72
2021/03/27 12:06:21;;;;;;;25.05;17.33;;;665.70;614.40;;;;;;5074606;28;20024;-68
2021/03/27 12:09:07;;;;;;;24.75;16.75;;;665.80;614.40;;;;;;4955493;28;20035;-73
2021/03/27 12:11:52;;;;;;;33.67;17.00;;;666.00;614.40;;;;;;4972400;28;20080;-72
2021/03/27 12:14:17;;;;;;;25.73;15.20;;;666.20;614.40;;;;;;4972303;28;20520;-72
2021/03/27 12:16:51;;;;;;;28.50;16.52;;;666.30;588.80;;;;;;4972260;28;20070;-72
2021/03/27 12:19:31;;;;;;;23.15;15.18;;;666.40;588.80;;;;;;4966950;28;20047;-71
2021/03/27 12:22:21;;;;;;;22.55;14.50;;;666.40;563.20;;;;;;4946997;29;20058;-66
2021/03/27 12:25:19;;;;;;;36.28;16.67;;;666.40;563.20;;;;;;4954205;29;20039;-66
2021/03/27 12:27:56;;;;;;;37.70;15.25;;;666.30;563.20;;;;;;4954347;29;20027;-66
2021/03/27 12:30:34;;;;;;;30.27;14.85;;;666.30;563.20;;;;;;4959337;28;20539;-72
2021/03/27 12:33:09;;;;;;;26.08;13.02;;;666.40;563.20;;;;;;4971832;28;20034;-71
2021/03/27 12:35:53;;;;;;;12.20;7.38;;;666.40;563.20;;;;;;4972629;28;20067;-69
2021/03/27 12:38:39;;;;;;;10.50;5.97;;;666.40;512.00;;;;;;4967945;28;20077;-65
2021/03/27 12:41:15;;;;;;;9.35;6.40;;;666.30;512.00;;;;;;4971996;28;20039;-68
2021/03/27 12:43:49;;;;;;;13.73;6.70;;;666.30;512.00;;;;;;4993553;28;20082;-70
2021/03/27 12:46:33;;;;;;;15.83;6.53;;;666.40;512.00;;;;;;5071160;28;20020;-65
2021/03/27 12:49:17;;;;;;;;;;;666.40;512.00;;;;;;5069473;28;20769;-66
2021/03/27 12:52:14;;;;;;;9.63;5.77;;;666.40;512.00;;;;;;5071563;28;19911;-71
2021/03/27 12:54:59;;;;;;;9.18;5.43;;;666.50;512.00;;;;;;5071805;28;20279;-70
2021/03/27 12:57:43;;;;;;;11.88;5.75;;;666.50;512.00;;;;;;5072506;28;20059;-71
2021/03/27 13:00:15;;;;;;;8.68;4.93;;;666.40;512.00;;;;;;5072557;28;20021;-66
2021/03/27 13:02:51;;;;;;;9.60;4.50;;;666.40;512.00;;;;;;5072204;28;20031;-65
2021/03/27 13:05:19;;;;;;;8.95;4.47;;;666.30;486.40;;;;;;5072245;28;20021;-65
2021/03/27 13:08:14;;;;;;;11.90;5.88;;;666.30;512.00;;;;;;5072197;28;20056;-68
2021/03/27 13:10:47;;;;;;;;;;;666.10;512.00;;;;;;5072873;28;20029;-70
2021/03/27 13:13:50;;;;;;;9.30;5.78;;;666.00;537.60;;;;;;5072352;28;19904;-68
2021/03/27 13:16:22;;;;;;;10.32;5.07;;;665.80;537.60;;;;;;5070379;28;20157;-66
2021/03/27 13:19:25;;;;;;;10.75;4.30;;;665.70;537.60;;;;;;5072235;28;20379;-69
2021/03/27 13:22:05;;;;;;;11.65;6.15;;;665.70;537.60;;;;;;5072751;28;20021;-66
2021/03/27 13:24:34;;;;;;;13.23;6.07;;;665.60;563.20;;;;;;5072710;28;20421;-65